createdAt,value
2017-09-10T10:03:12.402Z,7.20
2017-09-10T10:05:39.813Z,5.33
2017-09-10T10:08:07.297Z,3.17
2017-09-10T10:10:34.995Z,3.83
2017-09-10T10:13:03.396Z,3.53
2017-09-10T10:15:31.107Z,4.20
2017-09-10T10:17:58.533Z,4.70
2017-09-10T10:20:25.955Z,4.30
2017-09-10T10:22:53.380Z,3.30
2017-09-10T10:28:14.805Z,3.87
2017-09-10T10:30:42.228Z,3.80
2017-09-10T10:33:09.658Z,3.53
2017-09-10T10:35:37.108Z,3.87
2017-09-10T10:38:04.515Z,3.33
2017-09-10T10:40:32.121Z,3.33
2017-09-10T10:42:59.537Z,3.20
2017-09-10T10:45:26.947Z,3.77
2017-09-10T10:47:54.363Z,3.40
2017-09-10T10:50:21.948Z,4.10
2017-09-10T10:52:49.404Z,3.20
2017-09-10T10:55:16.856Z,3.00
2017-09-10T10:57:44.622Z,3.80
2017-09-10T11:00:12.036Z,2.70
2017-09-10T11:02:39.535Z,2.90
2017-09-10T11:05:06.955Z,3.30
2017-09-10T11:07:34.384Z,4.27
2017-09-10T11:10:01.814Z,2.83
2017-09-10T11:12:29.268Z,2.80
2017-09-10T11:14:56.819Z,2.60
2017-09-10T11:17:24.272Z,2.90
2017-09-10T11:19:51.687Z,3.17
2017-09-10T11:22:19.187Z,3.00
2017-09-10T11:24:46.636Z,2.87
2017-09-10T11:27:14.055Z,3.30
2017-09-10T11:29:41.472Z,2.90
2017-09-10T11:32:09.016Z,2.20
2017-09-10T11:34:36.481Z,2.03
2017-09-10T11:37:03.944Z,2.10
2017-09-10T11:39:32.260Z,2.50
2017-09-10T11:41:59.753Z,2.07
2017-09-10T11:44:27.216Z,2.47
2017-09-10T11:46:54.628Z,2.20
2017-09-10T11:49:22.136Z,1.90
2017-09-10T11:51:50.777Z,2.50
2017-09-10T11:54:18.207Z,2.63
2017-09-10T11:56:45.728Z,2.37
2017-09-10T11:59:13.155Z,2.10
2017-09-10T12:01:40.568Z,2.33
2017-09-10T12:04:08.004Z,2.13
2017-09-10T12:06:35.424Z,2.27
2017-09-10T12:09:03.008Z,2.70
2017-09-10T12:11:30.470Z,2.30
2017-09-10T12:13:57.919Z,2.37
2017-09-10T12:16:25.344Z,2.53
2017-09-10T12:18:52.835Z,2.33
2017-09-10T12:21:20.248Z,1.93
2017-09-10T12:23:47.659Z,1.87
2017-09-10T12:26:15.081Z,1.60
2017-09-10T12:28:42.583Z,2.00
2017-09-10T12:31:10.009Z,1.47
2017-09-10T12:33:37.559Z,2.20
2017-09-10T12:36:05.039Z,2.20
2017-09-10T12:38:32.484Z,2.20
2017-09-10T12:40:59.932Z,1.87
2017-09-10T12:43:27.345Z,2.00
2017-09-10T12:45:54.763Z,2.00
2017-09-10T12:48:22.310Z,2.17
2017-09-10T12:50:49.730Z,2.33
2017-09-10T12:53:17.141Z,2.80
2017-09-10T12:55:44.675Z,1.90
2017-09-10T12:58:12.100Z,2.00
2017-09-10T13:00:39.522Z,2.10
2017-09-10T13:03:06.972Z,2.20
2017-09-10T13:05:34.504Z,2.47
2017-09-10T13:08:01.955Z,2.20
2017-09-10T13:10:29.367Z,2.60
2017-09-10T13:12:56.800Z,1.80
2017-09-10T13:15:24.207Z,1.40
2017-09-10T13:17:51.799Z,1.90
2017-09-10T13:20:19.260Z,2.00
2017-09-10T13:22:46.859Z,2.10
2017-09-10T13:25:15.251Z,2.50
2017-09-10T13:27:42.728Z,2.10
2017-09-10T13:30:10.289Z,2.00
2017-09-10T13:32:37.700Z,1.80
2017-09-10T13:35:05.187Z,2.00
2017-09-10T13:37:32.600Z,2.30
2017-09-10T13:40:00.015Z,1.93
2017-09-10T13:42:27.428Z,2.20
2017-09-10T13:44:54.860Z,1.40
2017-09-10T13:47:22.383Z,2.07
2017-09-10T13:49:49.774Z,2.00
2017-09-10T13:52:17.200Z,1.90
2017-09-10T13:54:44.607Z,2.00
2017-09-10T13:57:12.034Z,1.90
2017-09-10T13:59:39.434Z,1.70
2017-09-10T14:02:06.858Z,2.60
2017-09-10T14:04:34.271Z,2.80
2017-09-10T14:07:01.707Z,2.60
2017-09-10T14:09:29.113Z,2.47
2017-09-10T14:11:56.536Z,2.10
2017-09-10T14:14:23.939Z,2.30
2017-09-10T14:16:51.368Z,2.40
2017-09-10T14:19:18.779Z,2.40
2017-09-10T14:21:46.197Z,3.30
2017-09-10T14:24:13.615Z,3.27
2017-09-10T14:26:41.038Z,2.90
2017-09-10T14:29:09.215Z,2.40
2017-09-10T14:31:36.635Z,2.40
2017-09-10T14:34:04.046Z,2.63
2017-09-10T14:36:31.463Z,2.70
2017-09-10T14:38:59.635Z,2.43
2017-09-10T14:41:27.072Z,1.97
2017-09-10T14:43:54.486Z,2.70
2017-09-10T14:46:21.888Z,2.60
2017-09-10T14:48:49.475Z,3.07
2017-09-10T14:51:16.891Z,2.97
2017-09-10T14:53:44.315Z,2.83
2017-09-10T14:56:11.723Z,2.50
2017-09-10T14:58:39.164Z,2.83
2017-09-10T15:01:06.581Z,2.40
2017-09-10T15:03:34.004Z,2.50
2017-09-10T15:06:01.690Z,2.77
2017-09-10T15:08:29.152Z,2.90
2017-09-10T15:10:56.608Z,2.73
2017-09-10T15:13:24.028Z,2.30
2017-09-10T15:15:51.441Z,2.27
2017-09-10T15:18:18.976Z,2.90
2017-09-10T15:20:46.432Z,2.33
2017-09-10T15:23:13.856Z,3.30
2017-09-10T15:25:42.032Z,3.00
2017-09-10T15:28:09.727Z,3.20
2017-09-10T15:30:37.127Z,3.10
2017-09-10T15:33:04.627Z,2.20
2017-09-10T15:35:32.039Z,3.13
2017-09-10T15:37:59.473Z,3.10
2017-09-10T15:40:26.907Z,2.50
2017-09-10T15:42:54.364Z,3.70
2017-09-10T15:45:21.824Z,3.60
2017-09-10T15:47:49.268Z,3.60
2017-09-10T15:50:16.841Z,4.30
2017-09-10T15:52:44.291Z,2.80
2017-09-10T15:55:11.711Z,3.20
2017-09-10T15:57:39.125Z,3.07
2017-09-10T16:00:06.552Z,3.03
2017-09-10T16:02:33.960Z,2.97
2017-09-10T16:05:01.444Z,4.20
2017-09-10T16:07:29.039Z,3.17
2017-09-10T16:09:56.444Z,3.70
2017-09-10T16:12:23.855Z,3.53
2017-09-10T16:14:51.296Z,4.50
2017-09-10T16:17:18.771Z,3.40
2017-09-10T16:19:46.313Z,3.40
2017-09-10T16:22:13.711Z,3.90
2017-09-10T16:24:41.138Z,4.10
2017-09-10T16:27:08.551Z,5.83
2017-09-10T16:29:35.975Z,7.23
2017-09-10T16:32:03.387Z,7.03
2017-09-10T16:34:30.804Z,5.57
2017-09-10T16:36:58.229Z,4.00
2017-09-10T16:39:25.655Z,3.50
2017-09-10T16:41:53.053Z,3.60
2017-09-10T16:44:20.462Z,3.50
2017-09-10T16:46:47.892Z,3.53
2017-09-10T16:49:15.327Z,3.30
2017-09-10T16:51:43.519Z,3.57
2017-09-10T16:54:10.923Z,2.63
2017-09-10T16:56:38.362Z,3.90
2017-09-10T16:59:06.659Z,3.67
2017-09-10T17:01:34.039Z,3.50
2017-09-10T17:04:01.499Z,3.43
2017-09-10T17:06:28.904Z,3.40
2017-09-10T17:08:56.317Z,3.53
2017-09-10T17:11:24.499Z,3.50
2017-09-10T17:13:51.916Z,4.03
2017-09-10T17:16:19.327Z,3.40
2017-09-10T17:18:46.751Z,3.23
2017-09-10T17:21:14.176Z,3.83
2017-09-10T17:23:41.727Z,3.57
2017-09-10T17:26:09.119Z,3.83
2017-09-10T17:33:30.471Z,3.17
2017-09-10T17:35:58.661Z,2.60
2017-09-10T17:38:26.067Z,3.13
2017-09-10T17:40:53.583Z,4.70
2017-09-10T17:43:20.999Z,4.77
2017-09-10T17:45:48.412Z,3.00
2017-09-10T17:48:15.835Z,3.17
2017-09-10T17:50:43.315Z,3.00
2017-09-10T17:53:10.787Z,3.07
2017-09-10T17:55:38.228Z,5.80
2017-09-10T17:58:05.648Z,3.33
2017-09-10T18:00:33.843Z,3.00
2017-09-10T18:03:01.313Z,3.60
2017-09-10T18:05:28.724Z,3.60
2017-09-10T18:07:56.144Z,3.77
2017-09-10T18:10:23.555Z,3.37
2017-09-10T18:12:51.055Z,3.00
2017-09-10T18:15:18.596Z,2.90
2017-09-10T18:17:46.018Z,3.07
2017-09-10T18:20:13.435Z,3.83
2017-09-10T18:22:40.879Z,4.20
2017-09-10T18:25:08.427Z,4.30
2017-09-10T18:27:35.839Z,3.70
2017-09-10T18:30:03.692Z,3.70
2017-09-10T18:32:31.127Z,4.10
2017-09-10T18:34:58.864Z,3.10
2017-09-10T18:37:26.303Z,4.03
2017-09-10T18:39:53.787Z,3.83
2017-09-10T18:42:21.394Z,2.80
2017-09-10T18:44:48.991Z,2.83
2017-09-10T18:47:16.428Z,3.07
2017-09-10T18:49:43.819Z,4.20
2017-09-10T18:52:11.372Z,2.70
2017-09-10T18:54:38.791Z,3.20
2017-09-10T18:57:06.208Z,4.00
2017-09-10T18:59:33.637Z,4.03
2017-09-10T19:02:01.051Z,3.70
2017-09-10T19:04:28.512Z,4.17
2017-09-10T19:06:56.104Z,3.40
2017-09-10T19:09:23.568Z,3.33
2017-09-10T19:11:51.180Z,4.03
2017-09-10T19:14:19.716Z,3.20
2017-09-10T19:16:47.180Z,4.07
2017-09-10T19:19:14.605Z,2.90
2017-09-10T19:21:42.020Z,3.37
2017-09-10T19:24:09.448Z,4.10
2017-09-10T19:26:36.876Z,6.60
2017-09-10T19:29:04.411Z,5.03
2017-09-10T19:31:31.887Z,3.40
2017-09-10T19:36:26.360Z,5.57
2017-09-10T19:38:54.957Z,4.53
2017-09-10T19:41:22.569Z,3.77
2017-09-10T19:43:50.018Z,4.47
2017-09-10T19:46:17.444Z,3.60
2017-09-10T19:48:44.910Z,3.23
2017-09-10T19:51:12.332Z,3.37
2017-09-10T19:53:39.914Z,3.17
2017-09-10T19:56:07.346Z,3.20
2017-09-10T19:58:34.756Z,3.90
2017-09-10T20:01:02.193Z,2.80
2017-09-10T20:03:29.619Z,3.37
2017-09-10T20:05:57.126Z,2.80
2017-09-10T20:08:24.548Z,3.03
2017-09-10T20:10:52.108Z,3.10
2017-09-10T20:13:19.564Z,3.30
2017-09-10T20:15:46.983Z,3.43
2017-09-10T20:18:14.394Z,4.10
2017-09-10T20:20:41.842Z,4.70
2017-09-10T20:23:09.297Z,3.77
2017-09-10T20:25:36.720Z,4.10
2017-09-10T20:28:04.842Z,4.10
2017-09-10T20:30:32.367Z,3.00
2017-09-10T20:32:59.784Z,3.77
2017-09-10T20:35:27.208Z,3.13
2017-09-10T20:37:54.737Z,3.40
2017-09-10T20:40:22.199Z,3.97
2017-09-10T20:42:49.652Z,4.00
2017-09-10T20:45:17.076Z,3.90
2017-09-10T20:47:44.487Z,5.23
2017-09-10T20:50:11.939Z,4.03
2017-09-10T20:52:39.352Z,5.30
2017-09-10T20:55:06.927Z,3.20
2017-09-10T20:57:34.352Z,4.00
2017-09-10T21:00:01.774Z,2.87
2017-09-10T21:02:29.209Z,4.23
2017-09-10T21:04:56.624Z,3.13
2017-09-10T21:07:24.128Z,4.60
2017-09-10T21:09:51.881Z,3.20
2017-09-10T21:12:19.384Z,4.00
2017-09-10T21:14:46.796Z,3.17
2017-09-10T21:17:14.219Z,3.50
2017-09-10T21:19:41.711Z,4.30
2017-09-10T21:22:09.143Z,3.67
2017-09-10T21:24:36.713Z,4.00
2017-09-10T21:27:04.179Z,3.17
2017-09-10T21:29:31.600Z,3.33
2017-09-10T21:31:59.028Z,3.93
2017-09-10T21:34:26.446Z,3.53
2017-09-10T21:36:53.945Z,4.03
2017-09-10T21:39:21.359Z,4.07
2017-09-10T21:41:48.911Z,3.90
2017-09-10T21:44:16.336Z,4.03
2017-09-10T21:46:43.824Z,3.93
2017-09-10T21:49:11.251Z,4.33
2017-09-10T21:51:38.667Z,4.27
2017-09-10T21:54:06.107Z,3.90
2017-09-10T21:56:33.556Z,3.60
2017-09-10T21:59:01.105Z,3.33
2017-09-10T22:01:28.519Z,4.77
2017-09-10T22:03:56.019Z,5.73
2017-09-10T22:06:23.472Z,4.67
2017-09-10T22:08:50.912Z,4.33
2017-09-10T22:11:18.328Z,4.53
2017-09-10T22:13:45.754Z,4.80
2017-09-10T22:16:13.304Z,4.70
2017-09-10T22:18:40.732Z,4.40
2017-09-10T22:21:08.167Z,4.37
2017-09-10T22:23:35.587Z,4.43
2017-09-10T22:26:03.013Z,4.40
2017-09-10T22:28:30.581Z,3.90
2017-09-10T22:30:58.346Z,4.80
2017-09-10T22:33:25.777Z,3.83
2017-09-10T22:35:53.220Z,4.10
2017-09-10T22:38:20.715Z,3.30
2017-09-10T22:40:48.119Z,2.77
2017-09-10T22:43:15.535Z,2.80
2017-09-10T22:45:42.976Z,4.13
2017-09-10T22:48:10.539Z,3.50
2017-09-10T22:50:37.967Z,3.37
2017-09-10T22:53:05.391Z,2.73
2017-09-10T22:55:32.906Z,2.80
2017-09-10T22:58:00.315Z,2.80
2017-09-10T23:00:27.818Z,3.73
2017-09-10T23:02:55.280Z,3.00
2017-09-10T23:05:22.731Z,5.20
2017-09-10T23:07:50.143Z,2.83
2017-09-10T23:10:17.644Z,3.50
2017-09-10T23:12:45.055Z,2.77
2017-09-10T23:15:12.475Z,3.70
2017-09-10T23:17:39.897Z,3.60
2017-09-10T23:20:07.464Z,4.60
2017-09-10T23:22:34.927Z,3.30
2017-09-10T23:25:02.593Z,3.40
2017-09-10T23:27:30.148Z,3.20
2017-09-10T23:29:57.571Z,3.40
2017-09-10T23:32:25.056Z,3.17
2017-09-10T23:34:52.478Z,3.80
2017-09-10T23:37:19.891Z,6.53
2017-09-10T23:39:47.337Z,3.10
2017-09-10T23:42:14.779Z,3.07
2017-09-10T23:44:42.256Z,3.20
2017-09-10T23:47:09.790Z,3.83
2017-09-10T23:49:37.204Z,3.33
2017-09-10T23:52:04.627Z,3.20
2017-09-10T23:54:32.050Z,3.90
2017-09-10T23:56:59.619Z,3.23
2017-09-10T23:59:27.063Z,2.70
